sensor_id;sensor_type;location;lat;lon;timestamp;pressure;altitude;pressure_sealevel;temperature;humidity
69528;BME280;57136;51.986;4.468;2023-02-12T00:02:05;103957.47;;;8.62;100.00
69528;BME280;57136;51.986;4.468;2023-02-12T00:04:31;103951.69;;;8.66;100.00
69528;BME280;57136;51.986;4.468;2023-02-12T00:06:56;103950.88;;;8.54;100.00
69528;BME280;57136;51.986;4.468;2023-02-12T00:09:21;103957.00;;;8.54;100.00
69528;BME280;57136;51.986;4.468;2023-02-12T00:11:46;103955.88;;;8.51;100.00
69528;BME280;57136;51.986;4.468;2023-02-12T00:14:12;103953.09;;;8.48;100.00
69528;BME280;57136;51.986;4.468;2023-02-12T00:16:37;103954.13;;;8.50;100.00
69528;BME280;57136;51.986;4.468;2023-02-12T00:19:02;103957.97;;;8.43;100.00
69528;BME280;57136;51.986;4.468;2023-02-12T00:21:28;103963.09;;;8.42;100.00
69528;BME280;57136;51.986;4.468;2023-02-12T00:23:54;103954.09;;;8.36;100.00
69528;BME280;57136;51.986;4.468;2023-02-12T00:26:20;103957.22;;;8.31;100.00
69528;BME280;57136;51.986;4.468;2023-02-12T00:28:46;103961.41;;;8.29;100.00
69528;BME280;57136;51.986;4.468;2023-02-12T00:31:17;103959.09;;;8.33;100.00
69528;BME280;57136;51.986;4.468;2023-02-12T00:33:43;103956.00;;;8.25;100.00
69528;BME280;57136;51.986;4.468;2023-02-12T00:36:13;103955.13;;;8.12;100.00
69528;BME280;57136;51.986;4.468;2023-02-12T00:38:39;103956.69;;;8.23;100.00
69528;BME280;57136;51.986;4.468;2023-02-12T00:41:04;103957.81;;;8.27;100.00
69528;BME280;57136;51.986;4.468;2023-02-12T00:43:30;103952.31;;;8.22;100.00
69528;BME280;57136;51.986;4.468;2023-02-12T00:45:55;103954.81;;;8.20;100.00
69528;BME280;57136;51.986;4.468;2023-02-12T00:48:21;103961.59;;;8.18;100.00
69528;BME280;57136;51.986;4.468;2023-02-12T00:50:47;103958.81;;;8.15;100.00
69528;BME280;57136;51.986;4.468;2023-02-12T00:53:13;103946.72;;;8.16;100.00
69528;BME280;57136;51.986;4.468;2023-02-12T00:55:38;103951.00;;;8.15;100.00
69528;BME280;57136;51.986;4.468;2023-02-12T00:58:04;103948.81;;;8.21;100.00
69528;BME280;57136;51.986;4.468;2023-02-12T01:00:30;103944.34;;;8.19;100.00
69528;BME280;57136;51.986;4.468;2023-02-12T01:02:55;103956.78;;;8.11;100.00
69528;BME280;57136;51.986;4.468;2023-02-12T01:05:20;103959.28;;;8.23;100.00
69528;BME280;57136;51.986;4.468;2023-02-12T01:07:50;103955.09;;;8.25;100.00
69528;BME280;57136;51.986;4.468;2023-02-12T01:10:15;103955.19;;;8.13;100.00
69528;BME280;57136;51.986;4.468;2023-02-12T01:12:41;103950.00;;;8.13;100.00
69528;BME280;57136;51.986;4.468;2023-02-12T01:15:07;103951.00;;;8.15;100.00
69528;BME280;57136;51.986;4.468;2023-02-12T01:17:34;103952.22;;;8.20;100.00
69528;BME280;57136;51.986;4.468;2023-02-12T01:20:00;103944.53;;;8.22;100.00
69528;BME280;57136;51.986;4.468;2023-02-12T01:22:26;103947.41;;;8.27;100.00
69528;BME280;57136;51.986;4.468;2023-02-12T01:24:51;103951.50;;;8.23;100.00
69528;BME280;57136;51.986;4.468;2023-02-12T01:27:18;103947.41;;;8.27;100.00
69528;BME280;57136;51.986;4.468;2023-02-12T01:29:43;103952.63;;;8.27;100.00
69528;BME280;57136;51.986;4.468;2023-02-12T01:32:10;103948.31;;;8.27;100.00
69528;BME280;57136;51.986;4.468;2023-02-12T01:34:36;103947.13;;;8.22;100.00
69528;BME280;57136;51.986;4.468;2023-02-12T01:37:02;103947.72;;;8.18;100.00
69528;BME280;57136;51.986;4.468;2023-02-12T01:39:27;103946.81;;;8.17;100.00
69528;BME280;57136;51.986;4.468;2023-02-12T01:41:53;103945.31;;;8.07;100.00
69528;BME280;57136;51.986;4.468;2023-02-12T01:44:21;103946.72;;;8.02;100.00
69528;BME280;57136;51.986;4.468;2023-02-12T01:46:54;103950.31;;;8.04;100.00
69528;BME280;57136;51.986;4.468;2023-02-12T01:49:40;103953.41;;;8.12;100.00
69528;BME280;57136;51.986;4.468;2023-02-12T01:54:35;103953.31;;;7.97;100.00
69528;BME280;57136;51.986;4.468;2023-02-12T01:57:03;103949.03;;;7.98;100.00
69528;BME280;57136;51.986;4.468;2023-02-12T01:59:29;103959.31;;;8.09;100.00
69528;BME280;57136;51.986;4.468;2023-02-12T02:01:55;103955.41;;;8.03;100.00
69528;BME280;57136;51.986;4.468;2023-02-12T02:04:25;103953.72;;;7.90;100.00
69528;BME280;57136;51.986;4.468;2023-02-12T02:07:00;103956.91;;;7.86;100.00
69528;BME280;57136;51.986;4.468;2023-02-12T02:09:28;103954.09;;;7.83;100.00
69528;BME280;57136;51.986;4.468;2023-02-12T02:11:54;103957.78;;;7.86;100.00
69528;BME280;57136;51.986;4.468;2023-02-12T02:14:39;103957.72;;;7.85;100.00
69528;BME280;57136;51.986;4.468;2023-02-12T02:23:09;103961.09;;;7.97;100.00
69528;BME280;57136;51.986;4.468;2023-02-12T02:26:34;103959.41;;;7.98;100.00
69528;BME280;57136;51.986;4.468;2023-02-12T02:29:43;103964.69;;;7.86;100.00
69528;BME280;57136;51.986;4.468;2023-02-12T02:32:22;103954.91;;;7.82;100.00
69528;BME280;57136;51.986;4.468;2023-02-12T02:34:59;103959.50;;;7.86;100.00
69528;BME280;57136;51.986;4.468;2023-02-12T02:37:31;103954.53;;;7.89;100.00
69528;BME280;57136;51.986;4.468;2023-02-12T02:42:32;103951.31;;;8.06;100.00
69528;BME280;57136;51.986;4.468;2023-02-12T02:45:03;103948.91;;;8.09;100.00
69528;BME280;57136;51.986;4.468;2023-02-12T02:47:37;103952.41;;;8.10;100.00
69528;BME280;57136;51.986;4.468;2023-02-12T02:50:11;103948.72;;;8.06;100.00
69528;BME280;57136;51.986;4.468;2023-02-12T02:53:09;103947.50;;;8.01;100.00
69528;BME280;57136;51.986;4.468;2023-02-12T02:55:42;103948.81;;;7.94;100.00
69528;BME280;57136;51.986;4.468;2023-02-12T02:58:16;103948.81;;;7.94;100.00
69528;BME280;57136;51.986;4.468;2023-02-12T03:00:48;103947.72;;;7.91;100.00
69528;BME280;57136;51.986;4.468;2023-02-12T03:03:24;103942.22;;;7.86;100.00
69528;BME280;57136;51.986;4.468;2023-02-12T03:05:56;103944.00;;;7.87;100.00
69528;BME280;57136;51.986;4.468;2023-02-12T03:08:35;103932.81;;;7.88;100.00
69528;BME280;57136;51.986;4.468;2023-02-12T03:11:23;103933.75;;;7.89;100.00
69528;BME280;57136;51.986;4.468;2023-02-12T03:13:58;103941.63;;;7.90;100.00
69528;BME280;57136;51.986;4.468;2023-02-12T03:19:25;103943.53;;;7.93;100.00
69528;BME280;57136;51.986;4.468;2023-02-12T03:22:00;103942.34;;;7.88;100.00
69528;BME280;57136;51.986;4.468;2023-02-12T03:24:35;103944.72;;;7.85;100.00
69528;BME280;57136;51.986;4.468;2023-02-12T03:27:10;103936.81;;;7.83;100.00
69528;BME280;57136;51.986;4.468;2023-02-12T03:29:37;103942.44;;;8.03;100.00
69528;BME280;57136;51.986;4.468;2023-02-12T03:34:56;103937.22;;;8.16;100.00
69528;BME280;57136;51.986;4.468;2023-02-12T03:37:32;103941.13;;;7.96;100.00
69528;BME280;57136;51.986;4.468;2023-02-12T03:40:22;103943.41;;;7.91;100.00
69528;BME280;57136;51.986;4.468;2023-02-12T03:45:58;103930.16;;;7.87;100.00
69528;BME280;57136;51.986;4.468;2023-02-12T03:53:25;103930.63;;;7.81;100.00
69528;BME280;57136;51.986;4.468;2023-02-12T03:55:56;103944.50;;;7.95;100.00
69528;BME280;57136;51.986;4.468;2023-02-12T03:58:27;103940.94;;;7.93;100.00
69528;BME280;57136;51.986;4.468;2023-02-12T04:00:53;103942.63;;;7.92;100.00
69528;BME280;57136;51.986;4.468;2023-02-12T04:03:19;103940.41;;;7.85;100.00
69528;BME280;57136;51.986;4.468;2023-02-12T04:05:44;103943.59;;;7.81;100.00
69528;BME280;57136;51.986;4.468;2023-02-12T04:08:11;103947.03;;;7.80;100.00
69528;BME280;57136;51.986;4.468;2023-02-12T04:13:41;103943.72;;;7.83;100.00
69528;BME280;57136;51.986;4.468;2023-02-12T04:16:28;103945.53;;;7.84;100.00
69528;BME280;57136;51.986;4.468;2023-02-12T04:18:57;103954.00;;;7.94;100.00
69528;BME280;57136;51.986;4.468;2023-02-12T04:24:38;103961.09;;;7.97;100.00
69528;BME280;57136;51.986;4.468;2023-02-12T04:29:56;103964.09;;;8.03;100.00
69528;BME280;57136;51.986;4.468;2023-02-12T04:32:41;103966.19;;;7.95;100.00
69528;BME280;57136;51.986;4.468;2023-02-12T04:37:56;103975.88;;;7.98;100.00
69528;BME280;57136;51.986;4.468;2023-02-12T04:40:24;103984.66;;;8.00;100.00
69528;BME280;57136;51.986;4.468;2023-02-12T04:42:51;103979.88;;;8.06;100.00
69528;BME280;57136;51.986;4.468;2023-02-12T04:45:25;103980.81;;;8.07;100.00
69528;BME280;57136;51.986;4.468;2023-02-12T04:47:51;103981.19;;;8.00;100.00
69528;BME280;57136;51.986;4.468;2023-02-12T04:50:19;103980.88;;;7.95;100.00
69528;BME280;57136;51.986;4.468;2023-02-12T04:52:45;103979.09;;;7.94;100.00
69528;BME280;57136;51.986;4.468;2023-02-12T04:55:10;103981.78;;;7.95;100.00
69528;BME280;57136;51.986;4.468;2023-02-12T04:57:36;103980.69;;;7.92;100.00
69528;BME280;57136;51.986;4.468;2023-02-12T05:00:03;103983.09;;;7.89;100.00
69528;BME280;57136;51.986;4.468;2023-02-12T05:02:30;103982.88;;;7.86;100.00
69528;BME280;57136;51.986;4.468;2023-02-12T05:04:55;103976.47;;;7.80;100.00
69528;BME280;57136;51.986;4.468;2023-02-12T05:07:20;103979.78;;;7.78;100.00
69528;BME280;57136;51.986;4.468;2023-02-12T05:09:46;103981.56;;;7.79;100.00
69528;BME280;57136;51.986;4.468;2023-02-12T05:12:11;103972.66;;;7.75;100.00
69528;BME280;57136;51.986;4.468;2023-02-12T05:14:36;103967.25;;;7.72;100.00
69528;BME280;57136;51.986;4.468;2023-02-12T05:17:02;103973.38;;;7.73;100.00
69528;BME280;57136;51.986;4.468;2023-02-12T05:19:27;103969.47;;;7.79;100.00
69528;BME280;57136;51.986;4.468;2023-02-12T05:21:53;103964.66;;;7.72;100.00
69528;BME280;57136;51.986;4.468;2023-02-12T05:24:18;103966.06;;;7.67;100.00
69528;BME280;57136;51.986;4.468;2023-02-12T05:26:43;103973.16;;;7.70;100.00
69528;BME280;57136;51.986;4.468;2023-02-12T05:29:09;103970.44;;;7.68;100.00
69528;BME280;57136;51.986;4.468;2023-02-12T05:31:34;103973.66;;;7.64;100.00
69528;BME280;57136;51.986;4.468;2023-02-12T05:33:59;103974.66;;;7.66;100.00
69528;BME280;57136;51.986;4.468;2023-02-12T05:36:26;103970.34;;;7.67;100.00
69528;BME280;57136;51.986;4.468;2023-02-12T05:38:52;103973.25;;;7.58;100.00
69528;BME280;57136;51.986;4.468;2023-02-12T05:41:22;103975.03;;;7.59;100.00
69528;BME280;57136;51.986;4.468;2023-02-12T05:43:48;103969.06;;;7.60;100.00
69528;BME280;57136;51.986;4.468;2023-02-12T05:46:14;103974.47;;;7.63;100.00
69528;BME280;57136;51.986;4.468;2023-02-12T05:48:39;103978.84;;;7.64;100.00
69528;BME280;57136;51.986;4.468;2023-02-12T05:51:13;103978.63;;;7.61;100.00
69528;BME280;57136;51.986;4.468;2023-02-12T05:53:40;103979.66;;;7.63;100.00
69528;BME280;57136;51.986;4.468;2023-02-12T05:56:17;103983.91;;;7.62;100.00
69528;BME280;57136;51.986;4.468;2023-02-12T05:58:46;103988.44;;;7.65;100.00
69528;BME280;57136;51.986;4.468;2023-02-12T06:01:14;103984.84;;;7.63;100.00
69528;BME280;57136;51.986;4.468;2023-02-12T06:03:40;103979.03;;;7.67;100.00
69528;BME280;57136;51.986;4.468;2023-02-12T06:06:06;103981.25;;;7.61;100.00
69528;BME280;57136;51.986;4.468;2023-02-12T06:08:31;103985.84;;;7.65;100.00
69528;BME280;57136;51.986;4.468;2023-02-12T06:11:06;103984.72;;;7.61;100.00
69528;BME280;57136;51.986;4.468;2023-02-12T06:13:32;103977.50;;;7.57;100.00
69528;BME280;57136;51.986;4.468;2023-02-12T06:15:58;103978.31;;;7.56;100.00
69528;BME280;57136;51.986;4.468;2023-02-12T06:18:24;103986.22;;;7.58;100.00
69528;BME280;57136;51.986;4.468;2023-02-12T06:20:50;103982.81;;;7.59;100.00
69528;BME280;57136;51.986;4.468;2023-02-12T06:23:19;103978.44;;;7.58;100.00
69528;BME280;57136;51.986;4.468;2023-02-12T06:25:44;103981.41;;;7.50;100.00
69528;BME280;57136;51.986;4.468;2023-02-12T06:28:09;103983.63;;;7.58;100.00
69528;BME280;57136;51.986;4.468;2023-02-12T06:30:34;103980.31;;;7.60;100.00
69528;BME280;57136;51.986;4.468;2023-02-12T06:33:00;103986.22;;;7.58;100.00
69528;BME280;57136;51.986;4.468;2023-02-12T06:35:26;103977.22;;;7.53;100.00
69528;BME280;57136;51.986;4.468;2023-02-12T06:37:52;103982.31;;;7.51;100.00
69528;BME280;57136;51.986;4.468;2023-02-12T06:40:20;103974.31;;;7.48;100.00
69528;BME280;57136;51.986;4.468;2023-02-12T06:42:47;103985.69;;;7.50;100.00
69528;BME280;57136;51.986;4.468;2023-02-12T06:45:12;103979.72;;;7.51;100.00
69528;BME280;57136;51.986;4.468;2023-02-12T06:47:37;103981.81;;;7.57;100.00
69528;BME280;57136;51.986;4.468;2023-02-12T06:50:03;103983.63;;;7.58;100.00
69528;BME280;57136;51.986;4.468;2023-02-12T06:52:28;103991.34;;;7.44;100.00
69528;BME280;57136;51.986;4.468;2023-02-12T06:54:54;103982.34;;;7.39;100.00
69528;BME280;57136;51.986;4.468;2023-02-12T06:57:19;103992.69;;;7.51;100.00
69528;BME280;57136;51.986;4.468;2023-02-12T06:59:45;103996.53;;;7.44;100.00
69528;BME280;57136;51.986;4.468;2023-02-12T07:02:10;103996.44;;;7.43;100.00
69528;BME280;57136;51.986;4.468;2023-02-12T07:04:39;103999.94;;;7.43;100.00
69528;BME280;57136;51.986;4.468;2023-02-12T07:07:04;103995.66;;;7.44;100.00
69528;BME280;57136;51.986;4.468;2023-02-12T07:09:30;104006.25;;;7.47;100.00
69528;BME280;57136;51.986;4.468;2023-02-12T07:11:59;104009.44;;;7.43;100.00
69528;BME280;57136;51.986;4.468;2023-02-12T07:14:24;104008.50;;;7.42;100.00
69528;BME280;57136;51.986;4.468;2023-02-12T07:16:53;104014.72;;;7.44;100.00
69528;BME280;57136;51.986;4.468;2023-02-12T07:19:19;104012.25;;;7.46;100.00
69528;BME280;57136;51.986;4.468;2023-02-12T07:21:45;104017.44;;;7.46;100.00
69528;BME280;57136;51.986;4.468;2023-02-12T07:24:11;104016.63;;;7.47;100.00
69528;BME280;57136;51.986;4.468;2023-02-12T07:26:37;104019.53;;;7.52;100.00
69528;BME280;57136;51.986;4.468;2023-02-12T07:29:03;104026.03;;;7.58;100.00
69528;BME280;57136;51.986;4.468;2023-02-12T07:31:28;104024.34;;;7.59;100.00
69528;BME280;57136;51.986;4.468;2023-02-12T07:33:56;104032.94;;;7.58;100.00
69528;BME280;57136;51.986;4.468;2023-02-12T07:36:22;104033.44;;;7.65;100.00
69528;BME280;57136;51.986;4.468;2023-02-12T07:38:48;104030.94;;;7.67;100.00
69528;BME280;57136;51.986;4.468;2023-02-12T07:44:09;104034.25;;;7.64;100.00
69528;BME280;57136;51.986;4.468;2023-02-12T07:46:41;104035.03;;;7.63;100.00
69528;BME280;57136;51.986;4.468;2023-02-12T07:49:09;104043.09;;;7.80;100.00
69528;BME280;57136;51.986;4.468;2023-02-12T07:51:36;104042.00;;;7.90;100.00
69528;BME280;57136;51.986;4.468;2023-02-12T07:54:03;104042.72;;;8.01;99.96
69528;BME280;57136;51.986;4.468;2023-02-12T07:56:31;104037.63;;;8.02;100.00
69528;BME280;57136;51.986;4.468;2023-02-12T07:59:10;104042.59;;;7.99;99.71
69528;BME280;57136;51.986;4.468;2023-02-12T08:01:37;104042.31;;;7.94;100.00
69528;BME280;57136;51.986;4.468;2023-02-12T08:04:09;104043.19;;;7.95;100.00
69528;BME280;57136;51.986;4.468;2023-02-12T08:06:38;104043.41;;;7.98;100.00
69528;BME280;57136;51.986;4.468;2023-02-12T08:09:07;104044.31;;;8.12;100.00
69528;BME280;57136;51.986;4.468;2023-02-12T08:11:34;104046.84;;;8.37;98.52
69528;BME280;57136;51.986;4.468;2023-02-12T08:14:01;104039.84;;;8.36;98.09
69528;BME280;57136;51.986;4.468;2023-02-12T08:16:27;104042.97;;;8.31;98.28
69528;BME280;57136;51.986;4.468;2023-02-12T08:18:54;104043.84;;;8.31;98.05
69528;BME280;57136;51.986;4.468;2023-02-12T08:21:23;104039.78;;;8.48;97.89
69528;BME280;57136;51.986;4.468;2023-02-12T08:23:49;104049.47;;;8.64;96.34
69528;BME280;57136;51.986;4.468;2023-02-12T08:26:23;104044.56;;;8.69;94.79
69528;BME280;57136;51.986;4.468;2023-02-12T08:28:57;104050.66;;;8.69;93.35
69528;BME280;57136;51.986;4.468;2023-02-12T08:31:25;104051.44;;;8.82;92.99
69528;BME280;57136;51.986;4.468;2023-02-12T08:33:53;104059.31;;;8.97;91.46
69528;BME280;57136;51.986;4.468;2023-02-12T08:36:21;104056.41;;;9.06;90.81
69528;BME280;57136;51.986;4.468;2023-02-12T08:38:48;104056.09;;;9.01;90.80
69528;BME280;57136;51.986;4.468;2023-02-12T08:41:16;104055.31;;;9.02;90.92
69528;BME280;57136;51.986;4.468;2023-02-12T08:43:42;104058.56;;;9.13;88.61
69528;BME280;57136;51.986;4.468;2023-02-12T08:46:14;104070.03;;;9.30;87.11
69528;BME280;57136;51.986;4.468;2023-02-12T08:48:40;104065.03;;;9.33;86.13
69528;BME280;57136;51.986;4.468;2023-02-12T08:51:12;104057.47;;;9.38;86.03
69528;BME280;57136;51.986;4.468;2023-02-12T08:53:40;104060.88;;;9.37;85.82
69528;BME280;57136;51.986;4.468;2023-02-12T08:56:07;104070.09;;;9.45;85.43
69528;BME280;57136;51.986;4.468;2023-02-12T08:58:33;104070.88;;;9.44;83.85
69528;BME280;57136;51.986;4.468;2023-02-12T09:00:59;104073.59;;;9.46;84.33
69528;BME280;57136;51.986;4.468;2023-02-12T09:03:26;104075.22;;;9.43;84.85
69528;BME280;57136;51.986;4.468;2023-02-12T09:05:51;104078.28;;;9.51;84.76
69528;BME280;57136;51.986;4.468;2023-02-12T09:08:20;104089.88;;;9.56;84.87
69528;BME280;57136;51.986;4.468;2023-02-12T09:10:46;104086.47;;;9.57;84.03
69528;BME280;57136;51.986;4.468;2023-02-12T09:13:12;104078.91;;;9.62;83.73
69528;BME280;57136;51.986;4.468;2023-02-12T09:15:40;104088.00;;;9.69;83.65
69528;BME280;57136;51.986;4.468;2023-02-12T09:18:06;104090.25;;;9.78;83.33
69528;BME280;57136;51.986;4.468;2023-02-12T09:20:32;104090.59;;;9.69;84.04
69528;BME280;57136;51.986;4.468;2023-02-12T09:22:58;104092.69;;;9.74;83.39
69528;BME280;57136;51.986;4.468;2023-02-12T09:25:23;104091.06;;;9.77;83.53
69528;BME280;57136;51.986;4.468;2023-02-12T09:27:49;104094.38;;;9.74;83.21
69528;BME280;57136;51.986;4.468;2023-02-12T09:30:14;104101.63;;;9.65;82.65
69528;BME280;57136;51.986;4.468;2023-02-12T09:32:40;104098.03;;;9.48;82.92
69528;BME280;57136;51.986;4.468;2023-02-12T09:35:05;104105.69;;;9.59;81.90
69528;BME280;57136;51.986;4.468;2023-02-12T09:37:31;104104.44;;;9.68;81.96
69528;BME280;57136;51.986;4.468;2023-02-12T09:39:56;104096.19;;;9.75;81.82
69528;BME280;57136;51.986;4.468;2023-02-12T09:42:27;104094.03;;;9.83;81.45
69528;BME280;57136;51.986;4.468;2023-02-12T09:45:02;104098.38;;;9.97;81.07
69528;BME280;57136;51.986;4.468;2023-02-12T09:47:35;104092.88;;;9.93;80.22
69528;BME280;57136;51.986;4.468;2023-02-12T09:50:16;104099.53;;;9.87;80.99
69528;BME280;57136;51.986;4.468;2023-02-12T09:52:49;104095.97;;;10.00;80.36
69528;BME280;57136;51.986;4.468;2023-02-12T09:55:18;104097.66;;;10.00;80.75
69528;BME280;57136;51.986;4.468;2023-02-12T09:57:43;104093.69;;;10.07;80.98
69528;BME280;57136;51.986;4.468;2023-02-12T10:00:15;104096.22;;;10.05;79.98
69528;BME280;57136;51.986;4.468;2023-02-12T10:02:43;104090.22;;;10.06;79.46
69528;BME280;57136;51.986;4.468;2023-02-12T10:05:19;104088.22;;;10.02;79.90
69528;BME280;57136;51.986;4.468;2023-02-12T10:23:56;104090.66;;;10.29;78.98
69528;BME280;57136;51.986;4.468;2023-02-12T10:29:12;104092.09;;;10.24;79.49
69528;BME280;57136;51.986;4.468;2023-02-12T10:31:43;104092.63;;;10.33;79.31
69528;BME280;57136;51.986;4.468;2023-02-12T10:34:21;104099.22;;;10.41;78.45
69528;BME280;57136;51.986;4.468;2023-02-12T10:36:49;104101.19;;;10.45;78.45
69528;BME280;57136;51.986;4.468;2023-02-12T10:39:34;104098.50;;;10.44;78.07
69528;BME280;57136;51.986;4.468;2023-02-12T10:42:11;104089.84;;;10.60;78.31
69528;BME280;57136;51.986;4.468;2023-02-12T10:44:40;104096.13;;;10.48;77.65
69528;BME280;57136;51.986;4.468;2023-02-12T10:47:05;104091.22;;;10.53;77.28
69528;BME280;57136;51.986;4.468;2023-02-12T10:49:33;104092.91;;;10.53;77.70
69528;BME280;57136;51.986;4.468;2023-02-12T10:52:11;104099.09;;;10.55;77.94
69528;BME280;57136;51.986;4.468;2023-02-12T10:54:45;104100.09;;;10.57;77.42
69528;BME280;57136;51.986;4.468;2023-02-12T10:57:16;104095.66;;;10.71;76.80
69528;BME280;57136;51.986;4.468;2023-02-12T10:59:45;104098.50;;;10.75;76.52
69528;BME280;57136;51.986;4.468;2023-02-12T11:04:48;104093.97;;;10.71;77.07
69528;BME280;57136;51.986;4.468;2023-02-12T11:07:13;104094.09;;;10.74;76.69
69528;BME280;57136;51.986;4.468;2023-02-12T11:09:42;104096.06;;;10.78;77.63
69528;BME280;57136;51.986;4.468;2023-02-12T11:12:30;104091.50;;;10.74;77.70
69528;BME280;57136;51.986;4.468;2023-02-12T11:14:59;104090.44;;;10.71;77.76
69528;BME280;57136;51.986;4.468;2023-02-12T11:17:39;104086.16;;;10.56;77.54
69528;BME280;57136;51.986;4.468;2023-02-12T11:20:27;104094.19;;;10.44;75.84
69528;BME280;57136;51.986;4.468;2023-02-12T11:22:55;104088.03;;;10.29;75.24
69528;BME280;57136;51.986;4.468;2023-02-12T11:25:23;104085.19;;;10.39;75.99
69528;BME280;57136;51.986;4.468;2023-02-12T11:28:16;104093.53;;;10.48;75.04
69528;BME280;57136;51.986;4.468;2023-02-12T11:33:25;104088.28;;;10.33;77.15
69528;BME280;57136;51.986;4.468;2023-02-12T11:35:57;104088.69;;;10.40;76.86
69528;BME280;57136;51.986;4.468;2023-02-12T11:38:30;104081.78;;;10.40;77.33
69528;BME280;57136;51.986;4.468;2023-02-12T11:41:03;104084.81;;;10.63;75.29
69528;BME280;57136;51.986;4.468;2023-02-12T11:43:32;104083.34;;;10.68;75.52
69528;BME280;57136;51.986;4.468;2023-02-12T11:45:59;104083.03;;;10.78;75.80
69528;BME280;57136;51.986;4.468;2023-02-12T11:48:36;104075.00;;;10.59;76.71
69528;BME280;57136;51.986;4.468;2023-02-12T11:51:05;104068.47;;;10.82;75.79
69528;BME280;57136;51.986;4.468;2023-02-12T11:53:39;104078.78;;;10.64;75.93
69528;BME280;57136;51.986;4.468;2023-02-12T11:56:09;104075.03;;;10.75;75.27
69528;BME280;57136;51.986;4.468;2023-02-12T11:58:35;104075.00;;;10.90;74.72
69528;BME280;57136;51.986;4.468;2023-02-12T12:04:02;104075.78;;;10.73;72.57
69528;BME280;57136;51.986;4.468;2023-02-12T12:06:45;104068.81;;;10.42;72.81
69528;BME280;57136;51.986;4.468;2023-02-12T12:12:22;104069.91;;;10.45;72.42
69528;BME280;57136;51.986;4.468;2023-02-12T12:14:53;104072.75;;;10.65;72.79
69528;BME280;57136;51.986;4.468;2023-02-12T12:17:53;104062.34;;;10.82;72.90
69528;BME280;57136;51.986;4.468;2023-02-12T12:20:48;104060.38;;;10.77;72.94
69528;BME280;57136;51.986;4.468;2023-02-12T12:23:24;104059.50;;;10.77;73.13
69528;BME280;57136;51.986;4.468;2023-02-12T12:26:02;104069.97;;;10.62;73.16
69528;BME280;57136;51.986;4.468;2023-02-12T12:28:44;104061.28;;;10.31;73.61
69528;BME280;57136;51.986;4.468;2023-02-12T12:31:18;104060.63;;;10.51;74.02
69528;BME280;57136;51.986;4.468;2023-02-12T12:33:47;104058.94;;;10.51;73.20
69528;BME280;57136;51.986;4.468;2023-02-12T12:53:41;104040.50;;;10.48;73.85
69528;BME280;57136;51.986;4.468;2023-02-12T12:56:24;104048.06;;;10.43;74.01
69528;BME280;57136;51.986;4.468;2023-02-12T13:07:43;104030.88;;;10.47;73.75
69528;BME280;57136;51.986;4.468;2023-02-12T13:10:32;104027.97;;;10.57;73.51
69528;BME280;57136;51.986;4.468;2023-02-12T13:13:24;104026.19;;;10.56;72.51
69528;BME280;57136;51.986;4.468;2023-02-12T13:16:00;104017.78;;;10.62;72.84
69528;BME280;57136;51.986;4.468;2023-02-12T13:23:50;104012.47;;;10.60;73.57
69528;BME280;57136;51.986;4.468;2023-02-12T13:26:23;104015.41;;;10.50;73.19
69528;BME280;57136;51.986;4.468;2023-02-12T13:31:32;104014.88;;;10.26;73.29
69528;BME280;57136;51.986;4.468;2023-02-12T13:34:04;104010.00;;;10.32;72.82
69528;BME280;57136;51.986;4.468;2023-02-12T13:36:32;104001.94;;;10.27;73.66
69528;BME280;57136;51.986;4.468;2023-02-12T13:39:12;104004.03;;;10.18;74.22
69528;BME280;57136;51.986;4.468;2023-02-12T13:41:46;104008.56;;;10.37;73.63
69528;BME280;57136;51.986;4.468;2023-02-12T13:44:24;104005.22;;;10.55;71.97
69528;BME280;57136;51.986;4.468;2023-02-12T13:50:05;103996.06;;;10.46;73.54
69528;BME280;57136;51.986;4.468;2023-02-12T13:52:52;104004.81;;;10.47;73.22
69528;BME280;57136;51.986;4.468;2023-02-12T13:55:25;104001.00;;;9.95;74.09
69528;BME280;57136;51.986;4.468;2023-02-12T14:01:09;103986.00;;;10.38;73.66
69528;BME280;57136;51.986;4.468;2023-02-12T14:03:36;103980.34;;;10.45;73.39
69528;BME280;57136;51.986;4.468;2023-02-12T14:06:14;103980.88;;;10.54;73.16
69528;BME280;57136;51.986;4.468;2023-02-12T14:08:47;103981.28;;;10.62;73.20
69528;BME280;57136;51.986;4.468;2023-02-12T14:11:17;103973.47;;;10.62;73.50
69528;BME280;57136;51.986;4.468;2023-02-12T14:13:51;103976.47;;;10.53;73.45
69528;BME280;57136;51.986;4.468;2023-02-12T14:16:34;103975.22;;;10.46;73.38
69528;BME280;57136;51.986;4.468;2023-02-12T14:25:01;103974.16;;;10.43;74.41
69528;BME280;57136;51.986;4.468;2023-02-12T14:27:53;103977.84;;;10.31;74.18
69528;BME280;57136;51.986;4.468;2023-02-12T14:30:30;103968.94;;;10.28;73.68
69528;BME280;57136;51.986;4.468;2023-02-12T14:37:59;103962.06;;;10.13;76.01
69528;BME280;57136;51.986;4.468;2023-02-12T14:43:32;103960.78;;;10.22;74.81
69528;BME280;57136;51.986;4.468;2023-02-12T14:46:41;103958.97;;;10.20;75.57
69528;BME280;57136;51.986;4.468;2023-02-12T14:49:27;103959.63;;;10.16;74.84
69528;BME280;57136;51.986;4.468;2023-02-12T14:52:05;103965.47;;;10.12;76.02
69528;BME280;57136;51.986;4.468;2023-02-12T14:54:44;103963.13;;;10.17;75.03
69528;BME280;57136;51.986;4.468;2023-02-12T14:57:34;103959.31;;;9.95;76.87
69528;BME280;57136;51.986;4.468;2023-02-12T15:00:22;103962.34;;;10.03;74.72
69528;BME280;57136;51.986;4.468;2023-02-12T15:05:46;103958.19;;;10.07;75.65
69528;BME280;57136;51.986;4.468;2023-02-12T15:08:43;103954.28;;;9.98;75.62
69528;BME280;57136;51.986;4.468;2023-02-12T15:11:19;103949.16;;;9.85;77.02
69528;BME280;57136;51.986;4.468;2023-02-12T15:14:05;103955.28;;;9.70;77.54
69528;BME280;57136;51.986;4.468;2023-02-12T15:16:57;103954.47;;;9.56;76.49
69528;BME280;57136;51.986;4.468;2023-02-12T15:19:48;103947.00;;;9.63;77.17